Time;durP1;ratioP1;P1;durP2;ratioP2;P2;SDS_P1;SDS_P2;PMS_P1;PMS_P2;Temp;Humidity;BMP_temperature;BMP_pressure;BME280_temperature;BME280_humidity;BME280_pressure;Samples;Min_cycle;Max_cycle;Signal;HPM_P1;HPM_P2
2022/08/12 00:45:02;;;;;;;5.03;3.40;;;;;;;19.90;53.17;101816.28;5068533;28;20040;-65
2022/08/12 00:47:29;;;;;;;6.63;3.47;;;;;;;19.86;54.71;101812.41;5068481;28;20474;-65
2022/08/12 00:49:57;;;;;;;4.88;3.70;;;;;;;19.78;56.73;101817.34;5068390;28;20043;-65
2022/08/12 00:52:23;;;;;;;7.35;3.75;;;;;;;19.77;54.34;101811.09;5068626;28;20024;-65
2022/08/12 00:54:56;;;;;;;7.22;3.65;;;;;;;19.70;55.40;101802.25;5068379;28;20055;-65
2022/08/12 00:57:23;;;;;;;4.40;3.40;;;;;;;19.79;55.13;101821.72;5068362;28;20032;-65
2022/08/12 00:59:51;;;;;;;6.15;4.28;;;;;;;19.79;57.41;101817.13;5068321;28;20384;-65
2022/08/12 01:02:41;;;;;;;6.75;3.38;;;;;;;19.78;56.24;101818.19;5068387;28;20471;-65
2022/08/12 01:13:30;;;;;;;7.47;3.63;;;;;;;19.48;60.62;101816.34;5068695;28;20101;-65
2022/08/12 01:16:05;;;;;;;10.30;3.88;;;;;;;19.45;56.18;101810.56;5068617;28;20028;-65
2022/08/12 01:18:33;;;;;;;5.32;3.92;;;;;;;19.42;57.62;101814.56;5072221;28;20024;-65
2022/08/12 01:21:08;;;;;;;7.43;3.83;;;;;;;19.43;56.50;101815.38;5071658;28;20021;-65
2022/08/12 01:23:58;;;;;;;6.60;3.58;;;;;;;19.40;56.42;101813.16;5071747;28;20100;-66
2022/08/12 01:26:24;;;;;;;6.70;3.92;;;;;;;19.26;61.05;101810.66;5071657;28;20028;-65
2022/08/12 01:28:54;;;;;;;7.25;3.55;;;;;;;19.14;63.33;101808.97;5071747;28;20054;-65
2022/08/12 01:31:20;;;;;;;9.27;4.18;;;;;;;19.15;58.80;101810.59;5071358;28;20039;-65
2022/08/12 01:33:54;;;;;;;6.57;4.07;;;;;;;19.03;64.63;101810.56;5071569;28;20032;-65
2022/08/12 01:36:21;;;;;;;5.43;3.47;;;;;;;18.94;65.40;101809.22;5071542;28;20059;-65
2022/08/12 01:38:49;;;;;;;5.50;4.20;;;;;;;18.85;65.55;101807.91;5071033;28;20488;-65
2022/08/12 01:41:17;;;;;;;5.13;3.92;;;;;;;18.95;60.76;101816.31;5071558;28;20021;-65
2022/08/12 01:43:44;;;;;;;5.75;4.28;;;;;;;19.00;61.23;101805.63;5071366;28;20037;-65
2022/08/12 01:46:41;;;;;;;6.57;4.03;;;;;;;18.91;62.35;101809.69;5071314;28;20028;-65
2022/08/12 01:49:16;;;;;;;4.97;3.78;;;;;;;18.78;66.27;101806.09;5066640;28;20404;-65
2022/08/12 01:51:45;;;;;;;4.97;3.72;;;;;;;18.78;61.05;101803.41;5071195;28;20095;-65
2022/08/12 01:54:13;;;;;;;7.30;4.40;;;;;;;18.82;61.79;101807.31;5071665;28;20028;-65
2022/08/12 01:56:51;;;;;;;8.02;4.60;;;;;;;18.87;59.92;101808.50;5071480;28;20493;-65
2022/08/12 01:59:49;;;;;;;7.30;4.15;;;;;;;18.87;59.17;101798.53;5071260;28;20051;-65
2022/08/12 02:02:18;;;;;;;6.40;4.07;;;;;;;18.84;63.33;101801.69;5071029;28;20025;-65
2022/08/12 02:11:17;;;;;;;6.30;4.28;;;;;;;18.67;63.04;101801.44;5071058;28;20545;-65
2022/08/12 02:13:54;;;;;;;5.90;4.05;;;;;;;18.62;60.64;101809.41;5070935;28;20601;-65
2022/08/12 02:16:45;;;;;;;9.45;4.25;;;;;;;18.64;59.77;101803.78;5070842;28;20028;-65
2022/08/12 02:19:18;;;;;;;8.30;4.80;;;;;;;18.61;60.39;101799.66;5070800;28;20108;-65
2022/08/12 02:21:57;;;;;;;4.45;3.88;;;;;;;18.58;64.35;101802.81;5070503;28;20059;-65
2022/08/12 02:24:25;;;;;;;7.70;4.55;;;;;;;18.50;65.23;101800.44;5070547;28;20037;-65
2022/08/12 02:26:53;;;;;;;6.38;4.35;;;;;;;18.38;66.27;101795.75;5070535;28;20479;-65
2022/08/12 02:29:19;;;;;;;7.45;4.70;;;;;;;18.31;64.13;101795.03;5069625;28;20090;-66
2022/08/12 02:31:46;;;;;;;6.55;4.30;;;;;;;18.24;64.12;101799.66;5070681;28;20120;-67
2022/08/12 02:34:15;;;;;;;8.20;5.03;;;;;;;18.22;63.96;101800.94;5070569;28;20076;-67
2022/08/12 02:36:43;;;;;;;8.00;4.95;;;;;;;18.10;65.72;101796.28;5070477;28;20032;-67
2022/08/12 02:39:12;;;;;;;6.97;4.55;;;;;;;18.08;64.96;101802.97;5070504;28;20553;-67
2022/08/12 02:41:42;;;;;;;8.05;4.90;;;;;;;18.08;64.53;101794.88;5070250;28;20032;-67
2022/08/12 02:44:09;;;;;;;8.07;4.93;;;;;;;18.10;65.04;101793.59;5070225;28;20471;-67
2022/08/12 02:46:36;;;;;;;7.05;5.13;;;;;;;18.08;64.04;101789.47;5070165;28;20085;-67
2022/08/12 02:49:09;;;;;;;9.15;5.85;;;;;;;18.13;63.88;101795.84;5070155;28;20050;-67
2022/08/12 02:51:40;;;;;;;8.52;5.57;;;;;;;18.12;64.06;101796.88;5070091;28;20036;-67
2022/08/12 02:54:06;;;;;;;11.20;5.82;;;;;;;18.11;64.12;101792.53;5069919;28;20118;-67
2022/08/12 02:56:37;;;;;;;12.00;6.47;;;;;;;18.12;64.36;101796.88;5068695;28;20487;-67
2022/08/12 02:59:03;;;;;;;10.50;6.30;;;;;;;18.11;64.35;101792.53;5069749;28;20033;-67
2022/08/12 03:01:34;;;;;;;8.52;6.38;;;;;;;18.09;64.72;101789.22;5069858;28;20286;-67
2022/08/12 03:04:04;;;;;;;10.15;6.60;;;;;;;18.05;64.68;101785.34;5069881;28;20119;-67
2022/08/12 03:07:08;;;;;;;12.50;6.50;;;;;;;18.05;64.08;101785.34;5069767;28;20036;-67
2022/08/12 03:09:42;;;;;;;11.65;6.90;;;;;;;18.02;65.24;101782.25;5069642;28;20111;-67
2022/08/12 03:12:09;;;;;;;9.43;6.57;;;;;;;18.01;65.41;101781.41;5069717;28;20219;-67
2022/08/12 03:14:34;;;;;;;11.07;7.00;;;;;;;18.01;65.57;101781.41;5069650;28;20127;-67
2022/08/12 03:17:12;;;;;;;19.52;6.90;;;;;;;18.03;65.48;101783.91;5069645;28;20123;-67
2022/08/12 03:19:38;;;;;;;10.20;6.40;;;;;;;18.01;65.71;101778.72;5069609;28;20582;-67
2022/08/12 03:22:11;;;;;;;10.55;6.75;;;;;;;18.02;66.72;101776.84;5069418;28;20060;-67
2022/08/12 03:24:41;;;;;;;10.60;6.47;;;;;;;18.01;66.83;101776.03;5069429;28;20033;-67
2022/08/12 03:27:09;;;;;;;16.15;7.18;;;;;;;17.91;67.01;101771.13;5069516;28;20143;-67
2022/08/12 03:29:37;;;;;;;12.93;7.00;;;;;;;17.94;67.59;101783.34;5069494;28;20502;-67
2022/08/12 03:32:04;;;;;;;14.13;6.45;;;;;;;17.91;68.86;101783.81;5069408;28;20488;-68
2022/08/12 03:34:34;;;;;;;12.10;7.38;;;;;;;17.81;71.23;101786.19;5069135;28;20060;-68
2022/08/12 03:37:01;;;;;;;13.45;8.13;;;;;;;17.73;72.36;101782.69;5069301;28;20036;-68
2022/08/12 03:42:24;;;;;;;13.00;7.07;;;;;;;17.55;70.91;101771.84;5069270;28;20041;-68
2022/08/12 04:01:59;;;;;;;12.10;6.60;;;;;;;17.34;69.93;101781.13;5069339;28;20051;-68
2022/08/12 04:04:32;;;;;;;11.30;7.57;;;;;;;17.36;70.27;101780.94;5068856;28;20025;-68
2022/08/12 04:07:06;;;;;;;12.73;7.03;;;;;;;17.40;71.76;101782.16;5068926;28;20031;-68
2022/08/12 04:09:32;;;;;;;15.77;8.23;;;;;;;17.36;72.05;101786.31;5068935;28;20055;-68
2022/08/12 04:14:41;;;;;;;16.38;7.70;;;;;;;17.34;71.95;101783.84;5069236;28;20036;-68
2022/08/12 04:17:07;;;;;;;14.85;6.95;;;;;;;17.30;72.41;101788.84;5068908;28;20479;-68
2022/08/12 04:19:33;;;;;;;11.98;7.28;;;;;;;17.29;73.81;101789.06;5068854;28;20536;-68
2022/08/12 04:21:59;;;;;;;14.52;9.10;;;;;;;17.25;72.56;101787.84;5068846;28;20373;-68
2022/08/12 04:24:26;;;;;;;11.77;8.02;;;;;;;17.23;72.71;101788.06;5069145;28;20036;-67
2022/08/12 04:26:52;;;;;;;14.57;6.90;;;;;;;17.22;72.78;101796.38;5068674;28;20024;-68
2022/08/12 04:29:21;;;;;;;13.43;8.35;;;;;;;17.15;73.37;101788.31;5067475;28;20548;-68
2022/08/12 04:31:48;;;;;;;10.55;6.90;;;;;;;17.13;72.91;101785.00;5068685;28;20082;-68
2022/08/12 04:34:14;;;;;;;12.95;7.35;;;;;;;17.15;72.97;101790.19;5068447;28;20072;-68
2022/08/12 04:36:41;;;;;;;13.55;7.35;;;;;;;17.14;73.27;101788.56;5068664;28;20044;-68
2022/08/12 04:39:09;;;;;;;11.98;6.20;;;;;;;17.16;73.31;101789.16;5069019;28;20037;-68
2022/08/12 04:41:36;;;;;;;12.45;7.70;;;;;;;17.21;72.88;101789.31;5068612;28;20051;-67
2022/08/12 04:44:06;;;;;;;11.57;6.90;;;;;;;17.22;73.38;101783.72;5068535;28;20051;-68
2022/08/12 04:46:31;;;;;;;10.23;6.38;;;;;;;17.23;73.47;101784.53;5068880;28;20072;-68
2022/08/12 04:48:57;;;;;;;10.18;6.70;;;;;;;17.27;73.60;101789.28;5068468;28;20052;-68
2022/08/12 04:51:22;;;;;;;12.38;6.55;;;;;;;17.31;73.60;101786.97;5069615;28;20527;-68
2022/08/12 04:53:49;;;;;;;10.80;6.97;;;;;;;17.36;73.10;101784.44;5072547;28;20028;-68
2022/08/12 04:56:15;;;;;;;11.27;7.20;;;;;;;17.39;73.74;101783.19;5072599;28;20423;-68
2022/08/12 04:58:41;;;;;;;11.63;6.72;;;;;;;17.50;72.21;101780.63;5072168;28;20037;-68
2022/08/12 05:01:07;;;;;;;9.57;6.95;;;;;;;17.60;72.02;101782.78;5072244;28;20051;-68
2022/08/12 05:03:40;;;;;;;11.35;6.90;;;;;;;17.66;72.51;101787.34;5072141;28;20020;-68
2022/08/12 05:06:06;;;;;;;11.85;7.50;;;;;;;17.68;72.02;101792.50;5072156;28;20480;-68
2022/08/12 05:08:33;;;;;;;12.70;7.18;;;;;;;17.80;71.57;101793.47;5072204;28;20499;-68
2022/08/12 05:10:59;;;;;;;12.35;7.43;;;;;;;18.03;70.68;101787.44;5072142;28;20606;-68
2022/08/12 05:13:30;;;;;;;10.88;7.25;;;;;;;18.11;70.83;101786.31;5072061;28;20036;-68
2022/08/12 05:15:55;;;;;;;10.38;6.75;;;;;;;18.13;70.42;101789.59;5071982;28;20060;-68
2022/08/12 05:18:21;;;;;;;10.80;7.28;;;;;;;18.12;70.28;101791.47;5071795;28;20105;-68
2022/08/12 05:20:47;;;;;;;14.45;7.32;;;;;;;18.13;70.14;101795.00;5071703;28;20025;-68
2022/08/12 05:23:18;;;;;;;10.70;6.70;;;;;;;18.21;70.76;101797.44;5071764;28;20036;-68
2022/08/12 05:25:45;;;;;;;12.23;6.70;;;;;;;18.27;70.14;101796.50;5071750;28;20058;-68
2022/08/12 05:28:12;;;;;;;16.27;7.93;;;;;;;18.33;70.82;101803.72;5071589;28;20282;-68
2022/08/12 05:30:40;;;;;;;10.95;6.28;;;;;;;18.33;69.76;101792.91;5071653;28;20066;-65
2022/08/12 05:33:05;;;;;;;13.25;7.90;;;;;;;18.43;70.95;101797.78;5071513;28;20048;-65
2022/08/12 05:35:38;;;;;;;13.90;7.90;;;;;;;18.51;70.32;101799.38;5071445;28;20064;-65
2022/08/12 05:40:49;;;;;;;11.43;7.05;;;;;;;18.72;69.92;101804.28;5071531;28;20043;-65
2022/08/12 05:43:16;;;;;;;13.20;7.00;;;;;;;18.76;70.57;101802.81;5071291;28;20028;-65
2022/08/12 05:45:41;;;;;;;15.00;8.02;;;;;;;18.85;69.42;101806.03;5071409;28;20498;-65
2022/08/12 05:48:06;;;;;;;12.85;6.70;;;;;;;18.93;70.35;101811.13;5071713;28;20063;-65
2022/08/12 05:50:34;;;;;;;12.05;7.75;;;;;;;19.01;70.69;101815.38;5071374;28;20062;-65
2022/08/12 05:52:59;;;;;;;10.15;6.97;;;;;;;19.10;70.08;101811.31;5071299;28;20033;-65
2022/08/12 05:55:24;;;;;;;12.85;7.38;;;;;;;19.18;69.84;101816.38;5071268;28;20025;-65
2022/08/12 05:57:54;;;;;;;17.95;8.70;;;;;;;19.26;68.81;101815.25;5071211;28;20154;-65
2022/08/12 06:00:24;;;;;;;12.27;6.95;;;;;;;19.34;68.66;101816.78;5071014;28;20507;-65
2022/08/12 06:02:50;;;;;;;13.35;8.00;;;;;;;19.35;68.31;101813.00;5070955;28;20028;-65
2022/08/12 06:05:15;;;;;;;16.85;7.82;;;;;;;19.45;68.11;101821.41;5071210;28;20021;-65
2022/08/12 06:07:44;;;;;;;12.95;7.95;;;;;;;19.49;67.46;101814.44;5071014;28;20132;-66
2022/08/12 06:10:10;;;;;;;16.25;9.02;;;;;;;19.56;68.11;101823.28;5070941;28;20101;-65
2022/08/12 06:12:35;;;;;;;13.75;8.68;;;;;;;19.60;67.57;101818.25;5071014;28;20028;-66
2022/08/12 06:15:01;;;;;;;12.60;8.25;;;;;;;19.64;67.13;101824.84;5070790;28;20467;-66
2022/08/12 06:17:29;;;;;;;17.90;8.20;;;;;;;19.68;67.81;101821.47;5071020;28;20043;-66
2022/08/12 06:19:57;;;;;;;14.52;8.88;;;;;;;19.70;67.35;101818.50;5070897;28;20036;-66
2022/08/12 06:22:23;;;;;;;19.55;9.93;;;;;;;19.76;67.10;101823.00;5070759;28;20708;-66
2022/08/12 06:24:48;;;;;;;14.50;8.45;;;;;;;19.78;66.45;101820.03;5070522;28;20104;-66
2022/08/12 06:27:16;;;;;;;13.65;8.18;;;;;;;19.82;66.38;101818.53;5070628;28;20453;-66
2022/08/12 06:29:41;;;;;;;16.10;9.73;;;;;;;19.89;66.74;101819.25;5070454;28;20111;-66
2022/08/12 06:32:07;;;;;;;19.52;10.35;;;;;;;19.95;67.44;101822.91;5070655;28;20159;-66
2022/08/12 06:34:33;;;;;;;15.52;9.90;;;;;;;19.99;65.78;101821.34;5070633;28;20081;-67
2022/08/12 06:36:58;;;;;;;16.92;9.10;;;;;;;20.00;66.27;101821.13;5070365;28;20043;-68
2022/08/12 06:39:24;;;;;;;17.27;9.73;;;;;;;20.05;66.82;101828.53;5070403;28;20063;-67
2022/08/12 06:44:33;;;;;;;12.35;8.82;;;;;;;20.14;65.34;101821.69;5070289;28;20392;-67
2022/08/12 06:46:59;;;;;;;13.07;8.45;;;;;;;20.20;65.12;101817.22;5070159;28;20043;-69
2022/08/12 06:49:24;;;;;;;15.30;8.48;;;;;;;20.26;64.28;101816.28;5070243;28;20476;-67
2022/08/12 06:51:53;;;;;;;16.70;10.40;;;;;;;20.25;64.83;101790.22;5070070;28;20033;-65
2022/08/12 06:54:18;;;;;;;18.20;9.52;;;;;;;20.39;65.99;101794.34;5070083;28;20387;-65
2022/08/12 06:56:43;;;;;;;16.77;10.48;;;;;;;20.45;64.30;101804.22;5069879;28;20043;-65
2022/08/12 06:59:10;;;;;;;14.80;8.80;;;;;;;20.51;65.10;101797.00;5069874;28;20032;-65
2022/08/12 07:01:35;;;;;;;16.08;10.25;;;;;;;20.61;64.03;101791.84;5070161;28;20032;-65
2022/08/12 07:04:00;;;;;;;21.55;10.20;;;;;;;20.71;65.23;101797.44;5069696;28;20472;-65
2022/08/12 07:06:27;;;;;;;17.20;10.73;;;;;;;20.76;64.67;101794.84;5069880;28;20059;-65
2022/08/12 07:08:52;;;;;;;15.98;10.98;;;;;;;20.85;63.85;101789.84;5069679;28;20032;-65
2022/08/12 07:11:18;;;;;;;16.83;10.95;;;;;;;20.91;64.48;101796.22;5069688;28;20499;-65
2022/08/12 07:13:48;;;;;;;17.02;10.38;;;;;;;20.92;65.45;101787.00;5069267;28;20459;-65
2022/08/12 07:16:16;;;;;;;15.85;9.15;;;;;;;21.00;63.20;101803.69;5069673;28;20012;-66
2022/08/12 07:18:46;;;;;;;16.75;9.63;;;;;;;21.07;62.41;101817.13;5069439;28;20115;-66
2022/08/12 07:21:13;;;;;;;15.23;10.48;;;;;;;21.15;62.75;101815.91;5069629;28;20028;-66
2022/08/12 07:23:40;;;;;;;19.23;9.35;;;;;;;21.23;63.22;101819.03;5069464;28;20025;-67
2022/08/12 07:26:07;;;;;;;17.23;10.43;;;;;;;21.32;63.94;101816.75;5069545;28;20024;-67
2022/08/12 07:28:38;;;;;;;16.35;10.02;;;;;;;21.40;62.05;101812.84;5069331;28;20033;-66
2022/08/12 07:31:06;;;;;;;13.63;9.75;;;;;;;21.50;61.87;101818.44;5068061;28;20028;-68
2022/08/12 07:33:32;;;;;;;16.67;11.27;;;;;;;21.61;61.82;101816.72;5069337;28;20017;-67
2022/08/12 07:36:01;;;;;;;22.25;12.07;;;;;;;21.66;60.42;101803.22;5069197;28;20060;-67
2022/08/12 07:38:35;;;;;;;19.42;10.02;;;;;;;21.83;61.14;101819.50;5068205;28;20032;-66
2022/08/12 07:41:05;;;;;;;16.05;9.25;;;;;;;21.93;60.15;101830.53;5069235;28;20028;-67
2022/08/12 07:43:34;;;;;;;19.45;10.48;;;;;;;22.06;60.05;101821.19;5069063;28;20043;-67
2022/08/12 07:46:03;;;;;;;14.38;9.50;;;;;;;22.17;58.55;101823.00;5069221;28;20035;-67
2022/08/12 07:48:35;;;;;;;18.02;9.77;;;;;;;22.28;59.74;101822.09;5069151;28;20129;-67
2022/08/12 07:51:00;;;;;;;18.15;9.55;;;;;;;22.28;59.34;101813.13;5069058;28;20064;-67
2022/08/12 07:53:25;;;;;;;17.33;9.73;;;;;;;22.45;56.85;101827.50;5067766;28;20071;-67
2022/08/12 07:55:51;;;;;;;15.32;8.68;;;;;;;22.56;57.36;101819.44;5069036;28;20036;-67
2022/08/12 07:58:17;;;;;;;16.73;8.30;;;;;;;22.68;57.37;101823.66;5069012;28;20047;-67
2022/08/12 08:00:43;;;;;;;16.85;9.35;;;;;;;22.73;56.68;101818.28;5068859;28;20054;-67
2022/08/12 08:03:12;;;;;;;14.05;8.27;;;;;;;22.93;57.62;101819.59;5068868;28;20058;-67
2022/08/12 08:05:39;;;;;;;12.90;8.32;;;;;;;23.04;56.43;101813.22;5069177;28;20020;-67
2022/08/12 08:08:33;;;;;;;20.02;9.32;;;;;;;23.22;56.65;101824.81;5069061;28;20027;-67
2022/08/12 08:13:44;;;;;;;15.35;7.53;;;;;;;25.38;51.19;101822.16;5067845;28;20035;-67
2022/08/12 08:16:14;;;;;;;13.07;7.10;;;;;;;27.87;43.64;101822.13;5068847;28;20111;-67
2022/08/12 08:18:40;;;;;;;11.02;5.68;;;;;;;30.12;37.93;101824.34;5068708;28;20025;-67
2022/08/12 08:21:07;;;;;;;12.02;6.28;;;;;;;31.68;34.33;101826.91;5068774;28;20462;-67
2022/08/12 08:26:21;;;;;;;11.07;5.70;;;;;;;34.02;29.86;101823.50;5069917;28;20526;-68
2022/08/12 08:28:47;;;;;;;10.52;6.30;;;;;;;34.76;29.18;101829.63;5072870;28;20043;-68
2022/08/12 08:31:13;;;;;;;16.40;7.07;;;;;;;35.38;27.56;101830.72;5072799;28;20514;-68
2022/08/12 08:33:40;;;;;;;18.35;7.68;;;;;;;35.90;26.42;101824.59;5072793;28;20078;-68
2022/08/12 08:36:06;;;;;;;12.00;5.25;;;;;;;36.54;26.08;101827.81;5072659;28;20041;-68
2022/08/12 08:38:31;;;;;;;9.43;5.20;;;;;;;37.21;24.66;101825.44;5072634;28;20034;-68
2022/08/12 08:43:40;;;;;;;12.55;5.55;;;;;;;37.32;25.32;101826.53;5072682;28;20098;-68
2022/08/12 08:46:06;;;;;;;9.43;5.57;;;;;;;37.24;24.08;101816.38;5072559;28;20539;-68
2022/08/12 08:48:33;;;;;;;12.85;5.75;;;;;;;37.34;24.21;101820.59;5072441;28;20369;-68
2022/08/12 08:50:58;;;;;;;11.70;6.07;;;;;;;37.29;23.85;101824.44;5072433;28;20169;-68
2022/08/12 08:53:24;;;;;;;10.57;5.25;;;;;;;37.30;24.02;101820.50;5072381;28;20032;-68
2022/08/12 08:55:52;;;;;;;7.05;4.82;;;;;;;36.35;26.06;101820.09;5072457;28;20403;-68
2022/08/12 08:58:19;;;;;;;12.15;5.22;;;;;;;34.36;27.15;101823.69;5072206;28;20051;-67
2022/08/12 09:00:48;;;;;;;7.03;4.65;;;;;;;32.55;31.35;101820.94;5072441;28;20424;-67
2022/08/12 09:03:14;;;;;;;14.43;5.50;;;;;;;31.32;32.08;101819.53;5072134;28;20024;-67
2022/08/12 09:05:39;;;;;;;9.18;5.03;;;;;;;30.45;32.85;101818.75;5071980;28;20457;-67
2022/08/12 09:08:04;;;;;;;6.78;4.57;;;;;;;29.81;34.28;101817.81;5071975;28;20127;-68
2022/08/12 09:10:32;;;;;;;9.77;6.05;;;;;;;29.42;34.82;101824.50;5071989;28;20086;-67
2022/08/12 09:15:42;;;;;;;12.43;5.88;;;;;;;28.52;36.39;101823.63;5072060;28;20043;-68
2022/08/12 09:18:09;;;;;;;10.25;4.10;;;;;;;28.24;36.86;101819.81;5071812;28;20032;-69
2022/08/12 09:20:37;;;;;;;8.30;4.68;;;;;;;28.08;36.59;101817.25;5071863;28;20021;-68
2022/08/12 09:23:09;;;;;;;11.13;5.07;;;;;;;27.95;36.66;101820.69;5071776;28;20032;-68
2022/08/12 09:25:36;;;;;;;10.88;6.18;;;;;;;27.79;38.72;101813.69;5071954;28;20086;-68
2022/08/12 09:28:03;;;;;;;9.60;4.53;;;;;;;27.80;38.88;101820.81;5071568;28;20040;-69
2022/08/12 09:30:29;;;;;;;10.65;5.40;;;;;;;27.79;39.08;101825.47;5071662;28;20059;-67
2022/08/12 09:32:55;;;;;;;8.45;4.70;;;;;;;27.65;37.24;101816.31;5071436;28;20036;-68
2022/08/12 09:35:26;;;;;;;6.50;4.38;;;;;;;27.55;39.49;101814.47;5071413;28;20056;-68
2022/08/12 09:37:55;;;;;;;7.60;4.53;;;;;;;27.49;38.36;101812.88;5071098;28;20032;-68
2022/08/12 09:40:23;;;;;;;6.78;4.20;;;;;;;27.51;38.86;101807.94;5071105;28;20489;-68
2022/08/12 09:45:33;;;;;;;9.38;4.60;;;;;;;27.70;39.80;101799.81;5071668;28;20062;-68
2022/08/12 09:48:03;;;;;;;6.80;4.57;;;;;;;27.72;37.82;101805.84;5071078;28;20032;-67
2022/08/12 09:50:30;;;;;;;8.00;4.90;;;;;;;27.74;37.60;101796.19;5071471;28;20024;-68
2022/08/12 09:53:13;;;;;;;5.30;3.83;;;;;;;27.78;38.60;101796.44;5071420;28;20103;-67
2022/08/12 09:55:46;;;;;;;3.78;3.42;;;;;;;27.86;36.33;101790.34;5071237;28;20505;-68
2022/08/12 09:58:15;;;;;;;5.95;4.10;;;;;;;27.99;35.98;101801.75;5071393;28;20044;-67
2022/08/12 10:00:45;;;;;;;4.15;3.75;;;;;;;28.10;36.10;101795.84;5071122;28;20491;-68
2022/08/12 10:03:13;;;;;;;5.03;3.50;;;;;;;28.23;36.54;101791.56;5066134;28;20028;-67
2022/08/12 10:05:45;;;;;;;5.50;4.40;;;;;;;28.42;35.89;101792.41;5066689;28;20035;-67
2022/08/12 10:08:16;;;;;;;11.77;4.30;;;;;;;28.56;35.79;101786.25;5066861;28;20387;-66
2022/08/12 10:13:41;;;;;;;5.38;3.42;;;;;;;28.51;34.02;101784.38;5066685;28;20055;-68
2022/08/12 10:16:17;;;;;;;10.13;3.67;;;;;;;28.53;34.73;101779.44;5066155;28;20103;-70
2022/08/12 10:18:46;;;;;;;5.97;3.80;;;;;;;28.54;34.76;101770.06;5066861;28;20122;-69
2022/08/12 10:21:17;;;;;;;7.97;3.97;;;;;;;28.74;35.43;101782.69;5066003;28;20492;-68
2022/08/12 10:23:47;;;;;;;10.52;3.95;;;;;;;28.74;33.21;101777.19;5066527;28;20029;-70
2022/08/12 10:31:50;;;;;;;11.30;5.22;;;;;;;28.78;32.93;101780.16;5066514;28;20097;-69
2022/08/12 10:34:21;;;;;;;6.40;3.70;;;;;;;28.79;32.88;101763.41;5066147;28;20147;-69
2022/08/12 10:36:48;;;;;;;6.05;3.70;;;;;;;28.84;31.39;101765.22;5066129;28;20027;-70
2022/08/12 10:39:16;;;;;;;5.75;5.00;;;;;;;28.80;33.15;101759.53;5069239;28;20399;-69
2022/08/12 10:44:26;;;;;;;5.32;3.78;;;;;;;28.88;32.99;101749.00;5070328;28;20035;-69
2022/08/12 10:46:51;;;;;;;7.80;3.80;;;;;;;28.97;33.56;101749.94;5070222;28;20036;-70
2022/08/12 10:49:17;;;;;;;6.03;3.30;;;;;;;29.08;33.61;101743.19;5069311;28;20056;-70
2022/08/12 10:51:44;;;;;;;4.95;3.70;;;;;;;29.16;32.54;101742.50;5070141;28;20483;-70
2022/08/12 10:54:12;;;;;;;6.40;3.58;;;;;;;29.25;32.01;101737.13;5070060;28;20167;-69
2022/08/12 10:56:39;;;;;;;8.27;4.47;;;;;;;29.33;32.02;101730.13;5069990;28;20032;-69
2022/08/12 10:59:05;;;;;;;5.28;3.70;;;;;;;29.40;30.63;101733.31;5070231;28;20028;-69
2022/08/12 11:01:32;;;;;;;5.78;4.13;;;;;;;29.39;30.19;101723.41;5069925;28;20044;-69
2022/08/12 11:04:00;;;;;;;6.15;3.55;;;;;;;29.47;31.57;101734.53;5069868;28;20108;-69
2022/08/12 11:06:26;;;;;;;6.53;3.97;;;;;;;29.46;31.32;101723.84;5069842;28;20142;-69
2022/08/12 11:08:53;;;;;;;8.02;4.25;;;;;;;29.56;31.09;101711.84;5069810;28;20162;-69
2022/08/12 11:11:19;;;;;;;5.63;3.90;;;;;;;29.61;32.03;101709.81;5069904;28;20545;-70
2022/08/12 11:13:47;;;;;;;7.82;5.28;;;;;;;29.75;31.01;101709.03;5069755;28;21027;-69
2022/08/12 11:16:15;;;;;;;6.43;3.80;;;;;;;29.87;31.53;101709.34;5069756;28;20028;-70
2022/08/12 11:18:40;;;;;;;5.05;3.95;;;;;;;29.85;30.28;101704.13;5069631;28;20024;-70
2022/08/12 11:21:05;;;;;;;7.10;3.95;;;;;;;29.82;29.00;101696.50;5069383;28;20630;-70
2022/08/12 11:23:31;;;;;;;7.90;4.25;;;;;;;29.78;29.91;101700.97;5069536;28;20033;-70
2022/08/12 11:25:56;;;;;;;6.72;3.45;;;;;;;29.80;30.06;101690.47;5069436;28;20036;-70
2022/08/12 11:28:22;;;;;;;5.95;4.13;;;;;;;29.94;29.25;101701.47;5069430;28;20123;-73
2022/08/12 11:30:47;;;;;;;5.97;3.90;;;;;;;29.98;30.45;101694.22;5069380;28;20024;-70
2022/08/12 11:33:12;;;;;;;7.32;4.13;;;;;;;29.96;31.50;101698.41;5069355;28;20052;-70
2022/08/12 11:35:42;;;;;;;7.13;4.00;;;;;;;29.89;30.52;101696.91;5069177;28;20137;-70
2022/08/12 11:38:09;;;;;;;6.82;4.07;;;;;;;29.91;30.43;101691.88;5069288;28;20032;-70
2022/08/12 11:40:34;;;;;;;9.52;4.40;;;;;;;29.99;31.09;101686.78;5069109;28;20032;-70
2022/08/12 11:43:00;;;;;;;11.70;4.80;;;;;;;30.02;29.80;101692.47;5069196;28;20047;-70
2022/08/12 11:45:26;;;;;;;8.00;3.63;;;;;;;30.05;32.31;101691.88;5069230;28;20494;-70
2022/08/12 11:47:53;;;;;;;7.85;3.78;;;;;;;30.05;29.53;101680.03;5069160;28;20028;-70
2022/08/12 11:50:20;;;;;;;8.38;4.55;;;;;;;30.08;30.75;101679.44;5069014;28;20032;-70
2022/08/12 11:52:46;;;;;;;6.57;4.93;;;;;;;30.09;29.43;101672.81;5069176;28;20148;-70
2022/08/12 11:55:12;;;;;;;6.38;4.35;;;;;;;30.09;32.23;101670.88;5069101;28;20077;-70
2022/08/12 11:57:49;;;;;;;8.07;3.90;;;;;;;30.02;30.48;101670.47;5069072;28;20036;-70
2022/08/12 12:00:15;;;;;;;4.25;3.30;;;;;;;30.07;30.50;101667.59;5068750;28;20386;-70
2022/08/12 12:02:41;;;;;;;5.63;3.92;;;;;;;30.14;29.20;101662.50;5068925;28;20119;-70
2022/08/12 12:05:07;;;;;;;7.03;3.97;;;;;;;30.17;29.85;101661.06;5068909;28;20038;-70
2022/08/12 12:07:36;;;;;;;4.28;3.72;;;;;;;30.27;29.17;101660.06;5068948;28;20078;-70
2022/08/12 12:10:01;;;;;;;5.80;3.65;;;;;;;30.32;29.79;101663.50;5068815;28;20033;-69
2022/08/12 12:12:26;;;;;;;5.13;4.00;;;;;;;30.36;29.22;101658.19;5068939;28;20028;-69
2022/08/12 12:14:52;;;;;;;7.70;4.30;;;;;;;30.37;30.71;101659.84;5068900;28;20542;-69
2022/08/12 12:17:17;;;;;;;7.43;3.72;;;;;;;30.29;28.70;101650.38;5068861;28;20444;-69
2022/08/12 12:19:42;;;;;;;7.65;3.92;;;;;;;30.26;29.03;101656.50;5068771;28;20032;-69
2022/08/12 12:22:08;;;;;;;5.25;3.75;;;;;;;30.25;29.52;101643.03;5068768;28;20033;-69
2022/08/12 12:24:33;;;;;;;8.05;4.07;;;;;;;30.32;31.26;101654.44;5068733;28;20033;-69
2022/08/12 12:26:59;;;;;;;5.05;4.20;;;;;;;30.26;31.00;101650.16;5068764;28;20024;-69
2022/08/12 12:29:24;;;;;;;9.07;5.03;;;;;;;30.21;31.58;101645.59;5068831;28;20094;-69
2022/08/12 12:31:49;;;;;;;6.40;4.13;;;;;;;30.17;28.47;101654.75;5068574;28;20395;-70
2022/08/12 12:34:15;;;;;;;8.57;4.95;;;;;;;30.21;28.84;101650.25;5068496;28;20032;-70
2022/08/12 12:36:40;;;;;;;8.75;4.40;;;;;;;30.15;29.02;101647.63;5068458;28;20056;-70
2022/08/12 12:39:05;;;;;;;9.25;4.40;;;;;;;30.24;29.69;101641.44;5068634;28;20033;-70
2022/08/12 12:41:31;;;;;;;31.08;6.80;;;;;;;30.30;28.40;101640.97;5068858;28;20140;-70
2022/08/12 12:43:56;;;;;;;7.00;4.20;;;;;;;30.25;31.29;101621.84;5068596;28;20478;-69
2022/08/12 12:46:21;;;;;;;8.75;3.80;;;;;;;30.22;30.79;101629.88;5069054;28;20031;-69
2022/08/12 12:48:47;;;;;;;7.55;4.70;;;;;;;30.17;30.55;101608.78;5068524;28;20034;-69
2022/08/12 12:51:14;;;;;;;7.63;4.40;;;;;;;30.18;30.60;101620.59;5068745;28;20035;-69
2022/08/12 12:53:43;;;;;;;7.05;3.63;;;;;;;30.26;30.00;101606.13;5068424;28;20033;-69
2022/08/12 12:56:19;;;;;;;6.05;4.03;;;;;;;30.45;31.68;101606.78;5068179;28;20028;-69
2022/08/12 12:58:48;;;;;;;5.07;4.05;;;;;;;30.56;29.34;101608.13;5068267;28;20032;-69
2022/08/12 13:01:15;;;;;;;9.63;3.95;;;;;;;30.68;29.42;101610.34;5068400;28;20555;-69
2022/08/12 13:03:40;;;;;;;7.35;4.45;;;;;;;30.71;27.73;101606.13;5068404;28;20403;-69
2022/08/12 13:06:07;;;;;;;9.55;4.30;;;;;;;30.74;30.01;101613.75;5068419;28;20028;-69
2022/08/12 13:08:33;;;;;;;4.97;3.85;;;;;;;30.72;28.21;101610.50;5068491;28;20039;-69
2022/08/12 13:11:02;;;;;;;8.13;4.00;;;;;;;30.70;28.40;101596.22;5068294;28;20044;-70
2022/08/12 13:13:28;;;;;;;6.22;3.70;;;;;;;30.72;29.07;101599.50;5071108;28;20125;-70
2022/08/12 13:15:56;;;;;;;5.65;3.90;;;;;;;30.78;30.00;101596.31;5072003;28;20036;-70
2022/08/12 13:18:24;;;;;;;5.32;3.13;;;;;;;30.85;26.69;101604.13;5071926;28;20029;-71